sensor_id;sensor_type;location;lat;lon;timestamp;pressure;altitude;pressure_sealevel;temperature;humidity
20015;BME280;61787;42.022;23.078;2022-07-23T00:00:20;96966.72;;;24.30;43.10
20015;BME280;61787;42.022;23.078;2022-07-23T00:01:23;96967.81;;;24.36;43.24
20015;BME280;61787;42.022;23.078;2022-07-23T00:02:28;96971.59;;;24.42;43.14
20015;BME280;61787;42.022;23.078;2022-07-23T00:03:30;96967.59;;;24.46;43.24
20015;BME280;61787;42.022;23.078;2022-07-23T00:04:32;96962.13;;;24.46;43.17
20015;BME280;61787;42.022;23.078;2022-07-23T00:05:34;96967.13;;;24.51;43.11
20015;BME280;61787;42.022;23.078;2022-07-23T00:06:37;96969.78;;;24.55;43.01
20015;BME280;61787;42.022;23.078;2022-07-23T00:07:39;96975.34;;;24.51;43.28
20015;BME280;61787;42.022;23.078;2022-07-23T00:08:41;96971.72;;;24.35;42.76
20015;BME280;61787;42.022;23.078;2022-07-23T00:09:43;96971.13;;;24.24;42.09
20015;BME280;61787;42.022;23.078;2022-07-23T00:10:45;96967.28;;;24.21;42.22
20015;BME280;61787;42.022;23.078;2022-07-23T00:11:46;96968.41;;;24.24;42.46
20015;BME280;61787;42.022;23.078;2022-07-23T00:12:48;96973.50;;;24.21;41.88
20015;BME280;61787;42.022;23.078;2022-07-23T00:13:52;96977.53;;;24.13;41.86
20015;BME280;61787;42.022;23.078;2022-07-23T00:14:56;96976.47;;;24.07;41.86
20015;BME280;61787;42.022;23.078;2022-07-23T00:15:58;96981.66;;;24.02;41.97
20015;BME280;61787;42.022;23.078;2022-07-23T00:16:59;96984.94;;;23.93;42.05
20015;BME280;61787;42.022;23.078;2022-07-23T00:18:01;96983.50;;;23.85;42.43
20015;BME280;61787;42.022;23.078;2022-07-23T00:19:03;96974.09;;;23.86;42.05
20015;BME280;61787;42.022;23.078;2022-07-23T00:20:06;96976.94;;;23.79;42.34
20015;BME280;61787;42.022;23.078;2022-07-23T00:21:08;96969.53;;;23.76;42.19
20015;BME280;61787;42.022;23.078;2022-07-23T00:22:09;96979.06;;;23.68;42.48
20015;BME280;61787;42.022;23.078;2022-07-23T00:23:11;96979.88;;;23.65;42.51
20015;BME280;61787;42.022;23.078;2022-07-23T00:24:13;96981.81;;;23.68;42.59
20015;BME280;61787;42.022;23.078;2022-07-23T00:25:15;96980.94;;;23.74;42.58
20015;BME280;61787;42.022;23.078;2022-07-23T00:26:32;96975.63;;;23.87;42.29
20015;BME280;61787;42.022;23.078;2022-07-23T00:27:34;96974.38;;;23.92;42.01
20015;BME280;61787;42.022;23.078;2022-07-23T00:28:36;96980.94;;;23.98;42.00
20015;BME280;61787;42.022;23.078;2022-07-23T00:29:37;96979.22;;;24.07;41.81
20015;BME280;61787;42.022;23.078;2022-07-23T00:30:39;96973.59;;;24.18;42.05
20015;BME280;61787;42.022;23.078;2022-07-23T00:31:41;96973.00;;;24.30;42.22
20015;BME280;61787;42.022;23.078;2022-07-23T00:32:52;96979.53;;;24.36;41.70
20015;BME280;61787;42.022;23.078;2022-07-23T00:33:57;96978.28;;;24.41;42.25
20015;BME280;61787;42.022;23.078;2022-07-23T00:34:58;96971.94;;;24.44;42.20
20015;BME280;61787;42.022;23.078;2022-07-23T00:36:00;96971.53;;;24.45;42.51
20015;BME280;61787;42.022;23.078;2022-07-23T00:37:02;96969.50;;;24.49;42.55
20015;BME280;61787;42.022;23.078;2022-07-23T00:38:04;96976.16;;;24.48;42.81
20015;BME280;61787;42.022;23.078;2022-07-23T00:39:06;96973.28;;;24.36;43.03
20015;BME280;61787;42.022;23.078;2022-07-23T00:40:09;96972.69;;;24.25;43.46
20015;BME280;61787;42.022;23.078;2022-07-23T00:41:11;96969.69;;;24.15;43.28
20015;BME280;61787;42.022;23.078;2022-07-23T00:42:13;96973.69;;;24.11;43.78
20015;BME280;61787;42.022;23.078;2022-07-23T00:43:14;96973.69;;;24.11;43.83
20015;BME280;61787;42.022;23.078;2022-07-23T00:44:21;96972.44;;;24.15;43.90
20015;BME280;61787;42.022;23.078;2022-07-23T00:45:23;96972.00;;;24.20;43.90
20015;BME280;61787;42.022;23.078;2022-07-23T00:46:24;96963.28;;;24.26;43.75
20015;BME280;61787;42.022;23.078;2022-07-23T00:47:26;96964.59;;;24.17;44.11
20015;BME280;61787;42.022;23.078;2022-07-23T00:48:28;96968.63;;;24.09;44.16
20015;BME280;61787;42.022;23.078;2022-07-23T00:49:30;96972.25;;;24.03;44.50
20015;BME280;61787;42.022;23.078;2022-07-23T00:50:32;96968.25;;;24.07;44.74
20015;BME280;61787;42.022;23.078;2022-07-23T00:51:33;96970.50;;;24.12;44.41
20015;BME280;61787;42.022;23.078;2022-07-23T00:52:37;96964.22;;;24.15;44.57
20015;BME280;61787;42.022;23.078;2022-07-23T00:53:39;96965.28;;;24.21;44.32
20015;BME280;61787;42.022;23.078;2022-07-23T00:54:41;96966.72;;;24.30;44.19
20015;BME280;61787;42.022;23.078;2022-07-23T00:55:42;96971.72;;;24.35;44.02
20015;BME280;61787;42.022;23.078;2022-07-23T00:56:46;96975.47;;;24.44;43.76
20015;BME280;61787;42.022;23.078;2022-07-23T00:57:48;96966.81;;;24.46;43.68
20015;BME280;61787;42.022;23.078;2022-07-23T00:58:49;96972.31;;;24.46;43.33
20015;BME280;61787;42.022;23.078;2022-07-23T00:59:51;96973.13;;;24.43;43.78
20015;BME280;61787;42.022;23.078;2022-07-23T01:00:53;96973.13;;;24.43;43.30
20015;BME280;61787;42.022;23.078;2022-07-23T01:01:55;96971.53;;;24.45;43.33
20015;BME280;61787;42.022;23.078;2022-07-23T01:02:56;96971.47;;;24.49;43.17
20015;BME280;61787;42.022;23.078;2022-07-23T01:03:58;96962.41;;;24.52;42.97
20015;BME280;61787;42.022;23.078;2022-07-23T01:05:00;96964.38;;;24.51;42.72
20015;BME280;61787;42.022;23.078;2022-07-23T01:06:02;96970.97;;;24.54;42.84
20015;BME280;61787;42.022;23.078;2022-07-23T01:07:03;96972.94;;;24.53;42.78
20015;BME280;61787;42.022;23.078;2022-07-23T01:08:05;96971.75;;;24.54;43.00
20015;BME280;61787;42.022;23.078;2022-07-23T01:09:07;96975.63;;;24.57;42.84
20015;BME280;61787;42.022;23.078;2022-07-23T01:10:09;96973.59;;;24.61;42.94
20015;BME280;61787;42.022;23.078;2022-07-23T01:11:33;96973.94;;;24.63;43.05
20015;BME280;61787;42.022;23.078;2022-07-23T01:12:35;96970.00;;;24.64;42.72
20015;BME280;61787;42.022;23.078;2022-07-23T01:13:41;96970.00;;;24.64;42.77
20015;BME280;61787;42.022;23.078;2022-07-23T01:14:43;96971.19;;;24.63;42.69
20015;BME280;61787;42.022;23.078;2022-07-23T01:15:44;96972.03;;;24.60;42.54
20015;BME280;61787;42.022;23.078;2022-07-23T01:16:48;96972.03;;;24.60;42.89
20015;BME280;61787;42.022;23.078;2022-07-23T01:17:50;96972.88;;;24.57;42.73
20015;BME280;61787;42.022;23.078;2022-07-23T01:18:52;96978.38;;;24.57;42.67
20015;BME280;61787;42.022;23.078;2022-07-23T01:19:54;96970.16;;;24.57;42.75
20015;BME280;61787;42.022;23.078;2022-07-23T01:20:56;96972.16;;;24.53;42.88
20015;BME280;61787;42.022;23.078;2022-07-23T01:21:58;96968.50;;;24.40;42.99
20015;BME280;61787;42.022;23.078;2022-07-23T01:23:02;96981.84;;;24.14;43.06
20015;BME280;61787;42.022;23.078;2022-07-23T01:24:04;96973.81;;;24.04;43.37
20015;BME280;61787;42.022;23.078;2022-07-23T01:25:07;96978.59;;;23.96;42.66
20015;BME280;61787;42.022;23.078;2022-07-23T01:26:08;96978.59;;;23.96;42.76
20015;BME280;61787;42.022;23.078;2022-07-23T01:27:12;96987.50;;;24.04;42.72
20015;BME280;61787;42.022;23.078;2022-07-23T01:28:14;96975.28;;;24.08;42.70
20015;BME280;61787;42.022;23.078;2022-07-23T01:29:16;96976.00;;;24.12;42.10
20015;BME280;61787;42.022;23.078;2022-07-23T01:30:19;96972.44;;;24.15;42.37
20015;BME280;61787;42.022;23.078;2022-07-23T01:31:20;96980.69;;;24.12;42.38
20015;BME280;61787;42.022;23.078;2022-07-23T01:32:22;96978.41;;;24.10;41.97
20015;BME280;61787;42.022;23.078;2022-07-23T01:33:24;96973.63;;;24.14;42.12
20015;BME280;61787;42.022;23.078;2022-07-23T01:34:25;96979.09;;;24.14;42.03
20015;BME280;61787;42.022;23.078;2022-07-23T01:35:27;96973.63;;;24.14;42.44
20015;BME280;61787;42.022;23.078;2022-07-23T01:36:29;96979.84;;;24.18;41.93
20015;BME280;61787;42.022;23.078;2022-07-23T01:37:30;96972.81;;;24.17;41.67
20015;BME280;61787;42.022;23.078;2022-07-23T01:38:32;96976.69;;;24.16;41.72
20015;BME280;61787;42.022;23.078;2022-07-23T01:39:34;96968.88;;;24.18;41.69
20015;BME280;61787;42.022;23.078;2022-07-23T01:40:35;96979.00;;;24.21;41.74
20015;BME280;61787;42.022;23.078;2022-07-23T01:41:38;96974.72;;;24.20;41.90
20015;BME280;61787;42.022;23.078;2022-07-23T01:42:40;96979.00;;;24.21;42.12
20015;BME280;61787;42.022;23.078;2022-07-23T01:43:42;96978.25;;;24.21;41.95
20015;BME280;61787;42.022;23.078;2022-07-23T01:44:44;96973.16;;;24.19;42.13
20015;BME280;61787;42.022;23.078;2022-07-23T01:45:46;96976.16;;;24.02;43.77
20015;BME280;61787;42.022;23.078;2022-07-23T01:46:48;96984.22;;;23.89;43.82
20015;BME280;61787;42.022;23.078;2022-07-23T01:47:49;96977.59;;;23.87;43.27
20015;BME280;61787;42.022;23.078;2022-07-23T01:48:51;96977.28;;;23.81;43.08
20015;BME280;61787;42.022;23.078;2022-07-23T01:49:53;96976.94;;;23.79;42.71
20015;BME280;61787;42.022;23.078;2022-07-23T01:50:55;96978.50;;;23.80;42.18
20015;BME280;61787;42.022;23.078;2022-07-23T01:51:56;96982.00;;;23.80;42.00
20015;BME280;61787;42.022;23.078;2022-07-23T01:53:01;96983.38;;;23.69;42.13
20015;BME280;61787;42.022;23.078;2022-07-23T01:54:03;96970.53;;;23.62;41.94
20015;BME280;61787;42.022;23.078;2022-07-23T01:55:05;96975.25;;;23.62;42.62
20015;BME280;61787;42.022;23.078;2022-07-23T01:56:07;96977.13;;;23.68;42.94
20015;BME280;61787;42.022;23.078;2022-07-23T01:57:09;96975.88;;;23.73;42.89
20015;BME280;61787;42.022;23.078;2022-07-23T01:58:11;96970.31;;;23.76;43.07
20015;BME280;61787;42.022;23.078;2022-07-23T01:59:12;96984.78;;;23.77;43.74
20015;BME280;61787;42.022;23.078;2022-07-23T02:00:14;96986.44;;;23.71;45.18
20015;BME280;61787;42.022;23.078;2022-07-23T02:01:16;96982.38;;;23.56;45.70
20015;BME280;61787;42.022;23.078;2022-07-23T02:02:18;96990.38;;;23.39;46.30
20015;BME280;61787;42.022;23.078;2022-07-23T02:03:20;96981.59;;;23.25;46.48
20015;BME280;61787;42.022;23.078;2022-07-23T02:04:22;96986.44;;;23.14;46.89
20015;BME280;61787;42.022;23.078;2022-07-23T02:05:25;96985.03;;;23.02;47.64
20015;BME280;61787;42.022;23.078;2022-07-23T02:06:27;96986.63;;;23.00;47.44
20015;BME280;61787;42.022;23.078;2022-07-23T02:07:29;96980.81;;;22.98;47.16
20015;BME280;61787;42.022;23.078;2022-07-23T02:08:33;96985.44;;;23.01;47.30
20015;BME280;61787;42.022;23.078;2022-07-23T02:09:35;96983.94;;;22.96;47.23
20015;BME280;61787;42.022;23.078;2022-07-23T02:10:37;96994.06;;;22.99;47.35
20015;BME280;61787;42.022;23.078;2022-07-23T02:11:39;96985.03;;;23.02;47.14
20015;BME280;61787;42.022;23.078;2022-07-23T02:12:40;96984.00;;;22.92;47.28
20015;BME280;61787;42.022;23.078;2022-07-23T02:13:42;96982.13;;;22.86;47.51
20015;BME280;61787;42.022;23.078;2022-07-23T02:14:44;96995.78;;;22.86;47.41
20015;BME280;61787;42.022;23.078;2022-07-23T02:15:46;96988.34;;;22.86;47.47
20015;BME280;61787;42.022;23.078;2022-07-23T02:16:48;96990.31;;;22.86;47.88
20015;BME280;61787;42.022;23.078;2022-07-23T02:17:50;96989.91;;;22.87;47.82
20015;BME280;61787;42.022;23.078;2022-07-23T02:18:51;96991.03;;;22.90;47.56
20015;BME280;61787;42.022;23.078;2022-07-23T02:19:53;96991.44;;;22.92;47.39
20015;BME280;61787;42.022;23.078;2022-07-23T02:20:55;96990.19;;;22.97;47.39
20015;BME280;61787;42.022;23.078;2022-07-23T02:21:56;96990.50;;;23.02;47.02
20015;BME280;61787;42.022;23.078;2022-07-23T02:22:58;96999.50;;;23.03;46.88
20015;BME280;61787;42.022;23.078;2022-07-23T02:23:59;96990.22;;;22.93;46.73
20015;BME280;61787;42.022;23.078;2022-07-23T02:25:02;96997.34;;;22.87;46.82
20015;BME280;61787;42.022;23.078;2022-07-23T02:26:04;96994.97;;;22.89;47.18
20015;BME280;61787;42.022;23.078;2022-07-23T02:27:06;96997.63;;;22.96;46.61
20015;BME280;61787;42.022;23.078;2022-07-23T02:28:08;96999.91;;;23.01;46.40
20015;BME280;61787;42.022;23.078;2022-07-23T02:29:09;96998.66;;;23.06;46.39
20015;BME280;61787;42.022;23.078;2022-07-23T02:30:11;96998.28;;;23.07;46.51
20015;BME280;61787;42.022;23.078;2022-07-23T02:31:13;96998.63;;;23.09;46.30
20015;BME280;61787;42.022;23.078;2022-07-23T02:32:15;97005.25;;;23.12;46.40
20015;BME280;61787;42.022;23.078;2022-07-23T02:33:17;97005.56;;;23.17;46.29
20015;BME280;61787;42.022;23.078;2022-07-23T02:34:19;97004.38;;;23.18;46.35
20015;BME280;61787;42.022;23.078;2022-07-23T02:35:20;97003.94;;;23.20;46.36
20015;BME280;61787;42.022;23.078;2022-07-23T02:36:23;97004.72;;;23.20;46.07
20015;BME280;61787;42.022;23.078;2022-07-23T02:37:25;97009.41;;;23.23;46.20
20015;BME280;61787;42.022;23.078;2022-07-23T02:38:26;97007.84;;;23.22;46.22
20015;BME280;61787;42.022;23.078;2022-07-23T02:39:28;97008.75;;;23.12;46.58
20015;BME280;61787;42.022;23.078;2022-07-23T02:40:30;97008.16;;;22.98;47.02
20015;BME280;61787;42.022;23.078;2022-07-23T02:41:31;97012.94;;;22.90;47.36
20015;BME280;61787;42.022;23.078;2022-07-23T02:42:33;97013.44;;;22.78;47.90
20015;BME280;61787;42.022;23.078;2022-07-23T02:43:34;97010.81;;;22.71;48.24
20015;BME280;61787;42.022;23.078;2022-07-23T02:44:36;97010.94;;;22.57;48.25
20015;BME280;61787;42.022;23.078;2022-07-23T02:45:38;97012.56;;;22.50;48.46
20015;BME280;61787;42.022;23.078;2022-07-23T02:46:39;97011.78;;;22.50;48.16
20015;BME280;61787;42.022;23.078;2022-07-23T02:47:41;97016.41;;;22.57;48.09
20015;BME280;61787;42.022;23.078;2022-07-23T02:48:43;97015.13;;;22.65;48.07
20015;BME280;61787;42.022;23.078;2022-07-23T02:49:45;97014.69;;;22.70;47.80
20015;BME280;61787;42.022;23.078;2022-07-23T02:50:47;97017.88;;;22.65;47.63
20015;BME280;61787;42.022;23.078;2022-07-23T02:51:48;97025.41;;;22.53;47.66
20015;BME280;61787;42.022;23.078;2022-07-23T02:52:50;97025.44;;;22.50;47.87
20015;BME280;61787;42.022;23.078;2022-07-23T02:53:52;97019.94;;;22.53;48.22
20015;BME280;61787;42.022;23.078;2022-07-23T02:54:54;97021.41;;;22.62;47.68
20015;BME280;61787;42.022;23.078;2022-07-23T02:55:55;97020.31;;;22.52;48.21
20015;BME280;61787;42.022;23.078;2022-07-23T02:56:57;97027.50;;;22.39;49.06
20015;BME280;61787;42.022;23.078;2022-07-23T02:57:59;97023.28;;;22.27;48.91
20015;BME280;61787;42.022;23.078;2022-07-23T02:59:00;97033.13;;;22.21;48.96
20015;BME280;61787;42.022;23.078;2022-07-23T03:00:04;97023.81;;;22.11;49.13
20015;BME280;61787;42.022;23.078;2022-07-23T03:01:07;97016.91;;;22.00;49.39
20015;BME280;61787;42.022;23.078;2022-07-23T03:02:08;97031.34;;;21.97;49.30
20015;BME280;61787;42.022;23.078;2022-07-23T03:03:10;97032.53;;;21.96;49.29
20015;BME280;61787;42.022;23.078;2022-07-23T03:04:12;97031.00;;;21.95;49.54
20015;BME280;61787;42.022;23.078;2022-07-23T03:05:14;97027.88;;;21.89;49.95
20015;BME280;61787;42.022;23.078;2022-07-23T03:06:15;97033.31;;;21.93;49.57
20015;BME280;61787;42.022;23.078;2022-07-23T03:07:18;97037.19;;;21.99;49.69
20015;BME280;61787;42.022;23.078;2022-07-23T03:08:19;97036.38;;;22.05;49.37
20015;BME280;61787;42.022;23.078;2022-07-23T03:09:21;97039.00;;;22.16;49.55
20015;BME280;61787;42.022;23.078;2022-07-23T03:10:23;97044.03;;;22.25;48.94
20015;BME280;61787;42.022;23.078;2022-07-23T03:11:24;97037.72;;;22.31;48.82
20015;BME280;61787;42.022;23.078;2022-07-23T03:12:26;97045.44;;;22.40;48.96
20015;BME280;61787;42.022;23.078;2022-07-23T03:13:28;97045.38;;;22.47;48.69
20015;BME280;61787;42.022;23.078;2022-07-23T03:14:32;97046.13;;;22.51;48.57
20015;BME280;61787;42.022;23.078;2022-07-23T03:15:33;97046.13;;;22.51;48.15
20015;BME280;61787;42.022;23.078;2022-07-23T03:16:35;97050.94;;;22.36;48.16
20015;BME280;61787;42.022;23.078;2022-07-23T03:17:37;97048.69;;;22.24;48.26
20015;BME280;61787;42.022;23.078;2022-07-23T03:18:41;97051.81;;;22.23;48.71
20015;BME280;61787;42.022;23.078;2022-07-23T03:19:43;97046.41;;;22.19;48.46
20015;BME280;61787;42.022;23.078;2022-07-23T03:20:45;97054.16;;;22.24;48.60
20015;BME280;61787;42.022;23.078;2022-07-23T03:21:46;97055.72;;;22.25;48.33
20015;BME280;61787;42.022;23.078;2022-07-23T03:22:48;97043.25;;;22.24;48.35
20015;BME280;61787;42.022;23.078;2022-07-23T03:23:50;97052.19;;;22.28;48.01
20015;BME280;61787;42.022;23.078;2022-07-23T03:24:51;97053.69;;;22.33;47.72
20015;BME280;61787;42.022;23.078;2022-07-23T03:25:56;97052.53;;;22.34;47.56
20015;BME280;61787;42.022;23.078;2022-07-23T03:26:57;97052.47;;;22.37;47.79
20015;BME280;61787;42.022;23.078;2022-07-23T03:27:59;97054.44;;;22.37;47.73
20015;BME280;61787;42.022;23.078;2022-07-23T03:29:01;97049.75;;;22.37;48.01
20015;BME280;61787;42.022;23.078;2022-07-23T03:30:06;97057.13;;;22.44;47.68
20015;BME280;61787;42.022;23.078;2022-07-23T03:31:08;97055.53;;;22.46;47.48
20015;BME280;61787;42.022;23.078;2022-07-23T03:32:10;97061.75;;;22.50;47.85
20015;BME280;61787;42.022;23.078;2022-07-23T03:33:13;97057.03;;;22.54;47.67
20015;BME280;61787;42.022;23.078;2022-07-23T03:34:14;97064.41;;;22.58;47.96
20015;BME280;61787;42.022;23.078;2022-07-23T03:35:16;97064.78;;;22.60;47.93
20015;BME280;61787;42.022;23.078;2022-07-23T03:36:18;97052.28;;;22.59;47.99
20015;BME280;61787;42.022;23.078;2022-07-23T03:37:22;97063.97;;;22.63;48.30
20015;BME280;61787;42.022;23.078;2022-07-23T03:38:25;97057.66;;;22.69;48.18
20015;BME280;61787;42.022;23.078;2022-07-23T03:39:27;97059.19;;;22.74;48.06
20015;BME280;61787;42.022;23.078;2022-07-23T03:40:28;97059.94;;;22.78;48.36
20015;BME280;61787;42.022;23.078;2022-07-23T03:41:30;97055.22;;;22.82;47.92
20015;BME280;61787;42.022;23.078;2022-07-23T03:42:32;97060.69;;;22.82;47.80
20015;BME280;61787;42.022;23.078;2022-07-23T03:43:33;97057.56;;;22.80;47.65
20015;BME280;61787;42.022;23.078;2022-07-23T03:44:35;97060.69;;;22.82;48.06
20015;BME280;61787;42.022;23.078;2022-07-23T03:45:40;97058.31;;;22.84;47.66
20015;BME280;61787;42.022;23.078;2022-07-23T03:46:42;97065.34;;;22.85;47.67
20015;BME280;61787;42.022;23.078;2022-07-23T03:47:43;97064.50;;;22.88;47.78
20015;BME280;61787;42.022;23.078;2022-07-23T03:48:45;97062.56;;;22.88;47.45
20015;BME280;61787;42.022;23.078;2022-07-23T03:49:48;97060.56;;;22.92;47.35
20015;BME280;61787;42.022;23.078;2022-07-23T03:50:50;97061.31;;;22.93;47.65
20015;BME280;61787;42.022;23.078;2022-07-23T03:51:51;97062.88;;;22.94;47.81
20015;BME280;61787;42.022;23.078;2022-07-23T03:52:53;97064.81;;;22.97;47.50
20015;BME280;61787;42.022;23.078;2022-07-23T03:53:55;97062.81;;;23.01;47.44
20015;BME280;61787;42.022;23.078;2022-07-23T03:54:57;97064.38;;;23.02;47.56
20015;BME280;61787;42.022;23.078;2022-07-23T03:55:58;97068.25;;;23.05;47.37
20015;BME280;61787;42.022;23.078;2022-07-23T03:57:01;97067.47;;;23.04;47.26
20015;BME280;61787;42.022;23.078;2022-07-23T03:58:05;97068.22;;;23.08;47.51
20015;BME280;61787;42.022;23.078;2022-07-23T03:59:06;97064.25;;;23.13;47.54
20015;BME280;61787;42.022;23.078;2022-07-23T04:00:09;97068.91;;;23.16;47.29
20015;BME280;61787;42.022;23.078;2022-07-23T04:01:11;97066.50;;;23.21;47.14
20015;BME280;61787;42.022;23.078;2022-07-23T04:02:13;97074.25;;;23.26;47.00
20015;BME280;61787;42.022;23.078;2022-07-23T04:03:15;97071.59;;;23.19;47.30
20015;BME280;61787;42.022;23.078;2022-07-23T04:04:16;97076.31;;;23.15;47.26
20015;BME280;61787;42.022;23.078;2022-07-23T04:05:18;97066.88;;;23.20;47.00
20015;BME280;61787;42.022;23.078;2022-07-23T04:06:20;97075.06;;;23.23;47.43
20015;BME280;61787;42.022;23.078;2022-07-23T04:07:22;97076.16;;;23.29;47.36
20015;BME280;61787;42.022;23.078;2022-07-23T04:08:23;97079.19;;;23.38;47.28
20015;BME280;61787;42.022;23.078;2022-07-23T04:09:26;97070.09;;;23.49;47.40
20015;BME280;61787;42.022;23.078;2022-07-23T04:10:28;97073.88;;;23.58;47.03
20015;BME280;61787;42.022;23.078;2022-07-23T04:11:30;97071.34;;;23.71;46.93
20015;BME280;61787;42.022;23.078;2022-07-23T04:12:32;97075.91;;;23.81;46.71
20015;BME280;61787;42.022;23.078;2022-07-23T04:13:33;97079.25;;;23.92;46.57
20015;BME280;61787;42.022;23.078;2022-07-23T04:14:35;97081.06;;;24.02;46.21
20015;BME280;61787;42.022;23.078;2022-07-23T04:15:37;97071.91;;;24.12;46.10
20015;BME280;61787;42.022;23.078;2022-07-23T04:16:39;97085.53;;;24.19;45.94
20015;BME280;61787;42.022;23.078;2022-07-23T04:17:41;97076.16;;;24.17;45.19
20015;BME280;61787;42.022;23.078;2022-07-23T04:18:43;97076.97;;;24.14;45.45
20015;BME280;61787;42.022;23.078;2022-07-23T04:19:45;97075.44;;;24.13;45.65
20015;BME280;61787;42.022;23.078;2022-07-23T04:20:46;97082.47;;;24.14;45.59
20015;BME280;61787;42.022;23.078;2022-07-23T04:21:48;97074.56;;;24.19;45.26
20015;BME280;61787;42.022;23.078;2022-07-23T04:22:50;97075.34;;;24.20;45.29
20015;BME280;61787;42.022;23.078;2022-07-23T04:23:52;97083.13;;;24.21;45.47
20015;BME280;61787;42.022;23.078;2022-07-23T04:24:54;97084.69;;;24.23;45.33
20015;BME280;61787;42.022;23.078;2022-07-23T04:25:55;97085.41;;;24.27;45.39
20015;BME280;61787;42.022;23.078;2022-07-23T04:26:58;97078.75;;;24.28;45.06
20015;BME280;61787;42.022;23.078;2022-07-23T04:27:59;97086.16;;;24.31;45.41
20015;BME280;61787;42.022;23.078;2022-07-23T04:29:01;97086.31;;;24.43;45.03
20015;BME280;61787;42.022;23.078;2022-07-23T04:30:04;97083.72;;;24.36;45.23
20015;BME280;61787;42.022;23.078;2022-07-23T04:31:06;97084.59;;;24.30;45.29
20015;BME280;61787;42.022;23.078;2022-07-23T04:32:07;97086.94;;;24.31;45.38
20015;BME280;61787;42.022;23.078;2022-07-23T04:33:09;97085.31;;;24.34;45.22
20015;BME280;61787;42.022;23.078;2022-07-23T04:34:11;97085.53;;;24.43;45.16
20015;BME280;61787;42.022;23.078;2022-07-23T04:35:12;97090.44;;;24.55;44.86
20015;BME280;61787;42.022;23.078;2022-07-23T04:36:14;97081.66;;;24.63;44.41
20015;BME280;61787;42.022;23.078;2022-07-23T04:37:16;97077.63;;;24.48;44.57
20015;BME280;61787;42.022;23.078;2022-07-23T04:38:17;97085.72;;;24.32;45.19
20015;BME280;61787;42.022;23.078;2022-07-23T04:39:19;97076.78;;;24.28;45.11
20015;BME280;61787;42.022;23.078;2022-07-23T04:40:21;97079.03;;;24.33;44.46
20015;BME280;61787;42.022;23.078;2022-07-23T04:41:23;97079.75;;;24.37;45.08
20015;BME280;61787;42.022;23.078;2022-07-23T04:42:24;97083.53;;;24.47;45.06
20015;BME280;61787;42.022;23.078;2022-07-23T04:43:26;97089.03;;;24.47;45.21
20015;BME280;61787;42.022;23.078;2022-07-23T04:44:28;97085.31;;;24.57;44.86
20015;BME280;61787;42.022;23.078;2022-07-23T04:45:30;97091.16;;;24.59;44.76
20015;BME280;61787;42.022;23.078;2022-07-23T04:46:32;97088.63;;;24.68;44.55
20015;BME280;61787;42.022;23.078;2022-07-23T04:47:35;97084.16;;;24.78;44.37
20015;BME280;61787;42.022;23.078;2022-07-23T04:48:36;97085.41;;;24.96;44.00
20015;BME280;61787;42.022;23.078;2022-07-23T04:49:38;97089.56;;;25.04;43.72
20015;BME280;61787;42.022;23.078;2022-07-23T04:50:39;97091.50;;;25.08;43.65
20015;BME280;61787;42.022;23.078;2022-07-23T04:51:41;97082.28;;;25.18;43.21
20015;BME280;61787;42.022;23.078;2022-07-23T04:52:43;97084.59;;;25.39;43.32
20015;BME280;61787;42.022;23.078;2022-07-23T04:53:45;97086.69;;;25.51;42.94
20015;BME280;61787;42.022;23.078;2022-07-23T04:54:47;97090.00;;;25.62;42.61
20015;BME280;61787;42.022;23.078;2022-07-23T04:55:48;97081.81;;;25.78;42.45
20015;BME280;61787;42.022;23.078;2022-07-23T04:56:50;97081.31;;;25.83;42.25
20015;BME280;61787;42.022;23.078;2022-07-23T04:57:52;97075.91;;;25.96;42.08
20015;BME280;61787;42.022;23.078;2022-07-23T04:58:53;97084.09;;;26.16;41.62
20015;BME280;61787;42.022;23.078;2022-07-23T04:59:55;97080.00;;;26.24;40.93
20015;BME280;61787;42.022;23.078;2022-07-23T05:00:57;97081.03;;;26.30;40.68
20015;BME280;61787;42.022;23.078;2022-07-23T05:01:59;97084.47;;;26.34;41.17
20015;BME280;61787;42.022;23.078;2022-07-23T05:03:01;97081.97;;;26.40;41.01
20015;BME280;61787;42.022;23.078;2022-07-23T05:04:03;97084.13;;;26.48;40.45
20015;BME280;61787;42.022;23.078;2022-07-23T05:05:05;97088.78;;;26.51;40.47
20015;BME280;61787;42.022;23.078;2022-07-23T05:06:07;97081.09;;;26.43;40.38
20015;BME280;61787;42.022;23.078;2022-07-23T05:07:09;97079.66;;;26.38;41.04
20015;BME280;61787;42.022;23.078;2022-07-23T05:08:10;97077.78;;;26.51;40.65
20015;BME280;61787;42.022;23.078;2022-07-23T05:09:12;97083.94;;;26.55;40.88
20015;BME280;61787;42.022;23.078;2022-07-23T05:10:13;97080.69;;;26.60;41.00
20015;BME280;61787;42.022;23.078;2022-07-23T05:11:15;97079.03;;;26.63;40.59
20015;BME280;61787;42.022;23.078;2022-07-23T05:12:17;97084.47;;;26.66;40.32
20015;BME280;61787;42.022;23.078;2022-07-23T05:13:18;97082.13;;;26.65;40.60
20015;BME280;61787;42.022;23.078;2022-07-23T05:14:20;97087.72;;;26.61;40.75
20015;BME280;61787;42.022;23.078;2022-07-23T05:15:23;97082.22;;;26.61;40.21
20015;BME280;61787;42.022;23.078;2022-07-23T05:16:25;97087.38;;;26.76;40.06
20015;BME280;61787;42.022;23.078;2022-07-23T05:17:26;97082.88;;;26.98;39.76
20015;BME280;61787;42.022;23.078;2022-07-23T05:18:28;97078.00;;;27.18;40.11
20015;BME280;61787;42.022;23.078;2022-07-23T05:19:30;97092.38;;;27.38;39.57
20015;BME280;61787;42.022;23.078;2022-07-23T05:20:31;97089.25;;;27.52;39.35
20015;BME280;61787;42.022;23.078;2022-07-23T05:21:33;97084.06;;;27.67;38.46
20015;BME280;61787;42.022;23.078;2022-07-23T05:22:35;97083.75;;;27.78;38.10
20015;BME280;61787;42.022;23.078;2022-07-23T05:23:36;97089.84;;;27.85;38.23
20015;BME280;61787;42.022;23.078;2022-07-23T05:24:38;97084.88;;;27.93;38.27